sensor_id;sensor_type;location;lat;lon;timestamp;P1;durP1;ratioP1;P2;durP2;ratioP2
13421;SDS011;6782;55.904;13.396;2023-06-10T00:00:58;1.37;;;1.00;;
13421;SDS011;6782;55.904;13.396;2023-06-10T00:03:46;1.00;;;0.90;;
13421;SDS011;6782;55.904;13.396;2023-06-10T00:06:35;1.00;;;0.90;;
13421;SDS011;6782;55.904;13.396;2023-06-10T00:09:22;1.48;;;0.80;;
13421;SDS011;6782;55.904;13.396;2023-06-10T00:12:10;1.50;;;0.87;;
13421;SDS011;6782;55.904;13.396;2023-06-10T00:14:57;1.50;;;1.00;;
13421;SDS011;6782;55.904;13.396;2023-06-10T00:17:44;2.00;;;0.97;;
13421;SDS011;6782;55.904;13.396;2023-06-10T00:20:31;1.57;;;1.10;;
13421;SDS011;6782;55.904;13.396;2023-06-10T00:23:23;1.17;;;0.95;;
13421;SDS011;6782;55.904;13.396;2023-06-10T00:26:10;1.53;;;1.03;;
13421;SDS011;6782;55.904;13.396;2023-06-10T00:28:57;1.40;;;0.90;;
13421;SDS011;6782;55.904;13.396;2023-06-10T00:31:45;1.10;;;0.90;;
13421;SDS011;6782;55.904;13.396;2023-06-10T00:34:32;1.10;;;0.95;;
13421;SDS011;6782;55.904;13.396;2023-06-10T00:37:20;1.73;;;1.10;;
13421;SDS011;6782;55.904;13.396;2023-06-10T00:40:10;1.00;;;0.90;;
13421;SDS011;6782;55.904;13.396;2023-06-10T00:42:58;1.03;;;0.97;;
13421;SDS011;6782;55.904;13.396;2023-06-10T00:45:45;1.07;;;0.90;;
13421;SDS011;6782;55.904;13.396;2023-06-10T00:48:32;1.85;;;1.00;;
13421;SDS011;6782;55.904;13.396;2023-06-10T00:51:20;1.38;;;0.90;;
13421;SDS011;6782;55.904;13.396;2023-06-10T00:54:08;1.50;;;1.20;;
13421;SDS011;6782;55.904;13.396;2023-06-10T00:57:00;1.17;;;1.00;;
13421;SDS011;6782;55.904;13.396;2023-06-10T00:59:48;1.23;;;1.00;;
13421;SDS011;6782;55.904;13.396;2023-06-10T01:02:36;0.93;;;0.90;;
13421;SDS011;6782;55.904;13.396;2023-06-10T01:05:23;1.10;;;1.00;;
13421;SDS011;6782;55.904;13.396;2023-06-10T01:08:14;3.13;;;1.07;;
13421;SDS011;6782;55.904;13.396;2023-06-10T01:11:12;1.63;;;0.87;;
13421;SDS011;6782;55.904;13.396;2023-06-10T01:14:06;1.00;;;0.90;;
13421;SDS011;6782;55.904;13.396;2023-06-10T01:16:56;2.33;;;1.20;;
13421;SDS011;6782;55.904;13.396;2023-06-10T01:19:43;0.93;;;0.87;;
13421;SDS011;6782;55.904;13.396;2023-06-10T01:22:32;2.40;;;1.03;;
13421;SDS011;6782;55.904;13.396;2023-06-10T01:25:22;1.93;;;0.97;;
13421;SDS011;6782;55.904;13.396;2023-06-10T01:28:14;0.93;;;0.87;;
13421;SDS011;6782;55.904;13.396;2023-06-10T01:31:07;2.73;;;1.00;;
13421;SDS011;6782;55.904;13.396;2023-06-10T01:34:00;1.40;;;0.90;;
13421;SDS011;6782;55.904;13.396;2023-06-10T01:36:49;1.43;;;1.07;;
13421;SDS011;6782;55.904;13.396;2023-06-10T01:39:39;2.27;;;1.10;;
13421;SDS011;6782;55.904;13.396;2023-06-10T01:42:27;1.20;;;0.80;;
13421;SDS011;6782;55.904;13.396;2023-06-10T01:45:15;2.67;;;1.00;;
13421;SDS011;6782;55.904;13.396;2023-06-10T01:48:02;1.20;;;0.90;;
13421;SDS011;6782;55.904;13.396;2023-06-10T01:50:50;1.23;;;0.83;;
13421;SDS011;6782;55.904;13.396;2023-06-10T01:53:37;1.93;;;0.90;;
13421;SDS011;6782;55.904;13.396;2023-06-10T01:56:26;0.70;;;0.70;;
13421;SDS011;6782;55.904;13.396;2023-06-10T01:59:13;1.97;;;1.03;;
13421;SDS011;6782;55.904;13.396;2023-06-10T02:02:01;1.30;;;1.00;;
13421;SDS011;6782;55.904;13.396;2023-06-10T02:04:48;1.47;;;0.80;;
13421;SDS011;6782;55.904;13.396;2023-06-10T02:07:35;1.23;;;1.10;;
13421;SDS011;6782;55.904;13.396;2023-06-10T02:10:23;1.10;;;1.00;;
13421;SDS011;6782;55.904;13.396;2023-06-10T02:13:13;1.33;;;0.90;;
13421;SDS011;6782;55.904;13.396;2023-06-10T02:16:00;2.30;;;1.10;;
13421;SDS011;6782;55.904;13.396;2023-06-10T02:18:48;1.60;;;1.00;;
13421;SDS011;6782;55.904;13.396;2023-06-10T02:21:35;1.73;;;0.80;;
13421;SDS011;6782;55.904;13.396;2023-06-10T02:24:22;1.00;;;0.90;;
13421;SDS011;6782;55.904;13.396;2023-06-10T02:27:09;1.33;;;0.80;;
13421;SDS011;6782;55.904;13.396;2023-06-10T02:29:58;2.07;;;0.90;;
13421;SDS011;6782;55.904;13.396;2023-06-10T02:32:45;1.07;;;0.93;;
13421;SDS011;6782;55.904;13.396;2023-06-10T02:35:33;1.73;;;0.90;;
13421;SDS011;6782;55.904;13.396;2023-06-10T02:38:20;0.80;;;0.80;;
13421;SDS011;6782;55.904;13.396;2023-06-10T02:41:08;0.93;;;0.90;;
13421;SDS011;6782;55.904;13.396;2023-06-10T02:43:55;1.77;;;0.97;;
13421;SDS011;6782;55.904;13.396;2023-06-10T02:46:44;1.23;;;0.90;;
13421;SDS011;6782;55.904;13.396;2023-06-10T02:49:31;1.53;;;1.10;;
13421;SDS011;6782;55.904;13.396;2023-06-10T02:52:19;1.03;;;0.90;;
13421;SDS011;6782;55.904;13.396;2023-06-10T02:55:07;0.83;;;0.83;;
13421;SDS011;6782;55.904;13.396;2023-06-10T02:57:54;0.90;;;0.90;;
13421;SDS011;6782;55.904;13.396;2023-06-10T03:00:41;1.10;;;1.00;;
13421;SDS011;6782;55.904;13.396;2023-06-10T03:03:30;1.40;;;1.10;;
13421;SDS011;6782;55.904;13.396;2023-06-10T03:06:19;1.83;;;0.93;;
13421;SDS011;6782;55.904;13.396;2023-06-10T03:09:06;1.20;;;0.90;;
13421;SDS011;6782;55.904;13.396;2023-06-10T03:11:54;2.93;;;1.00;;
13421;SDS011;6782;55.904;13.396;2023-06-10T03:14:41;1.20;;;0.90;;
13421;SDS011;6782;55.904;13.396;2023-06-10T03:17:28;1.57;;;0.80;;
13421;SDS011;6782;55.904;13.396;2023-06-10T03:20:17;2.47;;;1.00;;
13421;SDS011;6782;55.904;13.396;2023-06-10T03:23:07;0.73;;;0.70;;
13421;SDS011;6782;55.904;13.396;2023-06-10T03:25:55;1.58;;;1.00;;
13421;SDS011;6782;55.904;13.396;2023-06-10T03:28:42;0.88;;;0.88;;
13421;SDS011;6782;55.904;13.396;2023-06-10T03:31:29;1.55;;;1.10;;
13421;SDS011;6782;55.904;13.396;2023-06-10T03:34:16;3.13;;;1.00;;
13421;SDS011;6782;55.904;13.396;2023-06-10T03:37:06;0.80;;;0.80;;
13421;SDS011;6782;55.904;13.396;2023-06-10T03:39:54;2.13;;;0.82;;
13421;SDS011;6782;55.904;13.396;2023-06-10T03:42:41;2.25;;;1.00;;
13421;SDS011;6782;55.904;13.396;2023-06-10T03:45:29;2.17;;;0.95;;
13421;SDS011;6782;55.904;13.396;2023-06-10T03:48:17;0.82;;;0.80;;
13421;SDS011;6782;55.904;13.396;2023-06-10T03:51:04;2.50;;;0.93;;
13421;SDS011;6782;55.904;13.396;2023-06-10T03:53:53;2.25;;;0.88;;
13421;SDS011;6782;55.904;13.396;2023-06-10T03:56:41;1.40;;;1.00;;
13421;SDS011;6782;55.904;13.396;2023-06-10T03:59:28;1.05;;;1.00;;
13421;SDS011;6782;55.904;13.396;2023-06-10T04:02:15;1.90;;;1.15;;
13421;SDS011;6782;55.904;13.396;2023-06-10T04:05:03;0.73;;;0.73;;
13421;SDS011;6782;55.904;13.396;2023-06-10T04:07:51;1.90;;;1.00;;
13421;SDS011;6782;55.904;13.396;2023-06-10T04:10:41;1.52;;;0.90;;
13421;SDS011;6782;55.904;13.396;2023-06-10T04:13:28;1.42;;;0.95;;
13421;SDS011;6782;55.904;13.396;2023-06-10T04:16:15;1.20;;;1.10;;
13421;SDS011;6782;55.904;13.396;2023-06-10T04:19:03;2.13;;;1.20;;
13421;SDS011;6782;55.904;13.396;2023-06-10T04:21:51;2.70;;;1.10;;
13421;SDS011;6782;55.904;13.396;2023-06-10T04:24:38;1.48;;;1.20;;
13421;SDS011;6782;55.904;13.396;2023-06-10T04:27:28;2.45;;;1.20;;
13421;SDS011;6782;55.904;13.396;2023-06-10T04:30:16;1.70;;;1.20;;
13421;SDS011;6782;55.904;13.396;2023-06-10T04:33:03;2.85;;;1.10;;
13421;SDS011;6782;55.904;13.396;2023-06-10T04:35:53;1.38;;;1.13;;
13421;SDS011;6782;55.904;13.396;2023-06-10T04:38:41;2.47;;;1.30;;
13421;SDS011;6782;55.904;13.396;2023-06-10T04:41:28;1.80;;;1.27;;
13421;SDS011;6782;55.904;13.396;2023-06-10T04:44:17;1.50;;;1.20;;
13421;SDS011;6782;55.904;13.396;2023-06-10T04:47:04;2.10;;;1.30;;
13421;SDS011;6782;55.904;13.396;2023-06-10T04:49:53;2.30;;;1.25;;
13421;SDS011;6782;55.904;13.396;2023-06-10T04:52:40;1.88;;;1.27;;
13421;SDS011;6782;55.904;13.396;2023-06-10T04:55:28;1.42;;;1.15;;
13421;SDS011;6782;55.904;13.396;2023-06-10T04:58:15;1.45;;;1.20;;
13421;SDS011;6782;55.904;13.396;2023-06-10T05:01:03;1.23;;;1.10;;
13421;SDS011;6782;55.904;13.396;2023-06-10T05:03:51;1.55;;;1.20;;
13421;SDS011;6782;55.904;13.396;2023-06-10T05:06:38;1.48;;;1.30;;
13421;SDS011;6782;55.904;13.396;2023-06-10T05:09:26;0.98;;;0.80;;
13421;SDS011;6782;55.904;13.396;2023-06-10T05:12:13;2.78;;;1.20;;
13421;SDS011;6782;55.904;13.396;2023-06-10T05:15:00;3.35;;;1.27;;
13421;SDS011;6782;55.904;13.396;2023-06-10T05:17:48;1.88;;;1.10;;
13421;SDS011;6782;55.904;13.396;2023-06-10T05:20:35;1.30;;;1.10;;
13421;SDS011;6782;55.904;13.396;2023-06-10T05:23:23;2.38;;;1.25;;
13421;SDS011;6782;55.904;13.396;2023-06-10T05:26:10;2.67;;;0.93;;
13421;SDS011;6782;55.904;13.396;2023-06-10T05:28:57;2.38;;;1.00;;
13421;SDS011;6782;55.904;13.396;2023-06-10T05:31:44;1.40;;;1.25;;
13421;SDS011;6782;55.904;13.396;2023-06-10T05:34:33;1.63;;;1.00;;
13421;SDS011;6782;55.904;13.396;2023-06-10T05:37:21;1.92;;;1.10;;
13421;SDS011;6782;55.904;13.396;2023-06-10T05:40:08;3.45;;;1.30;;
13421;SDS011;6782;55.904;13.396;2023-06-10T05:42:56;1.23;;;1.10;;
13421;SDS011;6782;55.904;13.396;2023-06-10T05:45:44;1.10;;;1.00;;
13421;SDS011;6782;55.904;13.396;2023-06-10T05:48:31;2.42;;;1.10;;
13421;SDS011;6782;55.904;13.396;2023-06-10T05:51:20;2.35;;;1.05;;
13421;SDS011;6782;55.904;13.396;2023-06-10T05:54:07;1.17;;;0.90;;
13421;SDS011;6782;55.904;13.396;2023-06-10T05:56:54;1.52;;;1.15;;
13421;SDS011;6782;55.904;13.396;2023-06-10T05:59:42;2.80;;;1.20;;
13421;SDS011;6782;55.904;13.396;2023-06-10T06:02:29;1.67;;;1.10;;
13421;SDS011;6782;55.904;13.396;2023-06-10T06:05:16;2.90;;;1.20;;
13421;SDS011;6782;55.904;13.396;2023-06-10T06:08:05;0.93;;;0.93;;
13421;SDS011;6782;55.904;13.396;2023-06-10T06:10:52;2.00;;;0.90;;
13421;SDS011;6782;55.904;13.396;2023-06-10T06:13:40;1.60;;;1.10;;
13421;SDS011;6782;55.904;13.396;2023-06-10T06:16:27;1.33;;;1.17;;
13421;SDS011;6782;55.904;13.396;2023-06-10T06:19:14;2.35;;;1.10;;
13421;SDS011;6782;55.904;13.396;2023-06-10T06:22:01;2.05;;;1.35;;
13421;SDS011;6782;55.904;13.396;2023-06-10T06:24:50;1.52;;;1.25;;
13421;SDS011;6782;55.904;13.396;2023-06-10T06:27:37;0.90;;;0.90;;
13421;SDS011;6782;55.904;13.396;2023-06-10T06:30:25;2.35;;;1.35;;
13421;SDS011;6782;55.904;13.396;2023-06-10T06:33:12;3.70;;;1.13;;
13421;SDS011;6782;55.904;13.396;2023-06-10T06:35:59;1.27;;;1.00;;
13421;SDS011;6782;55.904;13.396;2023-06-10T06:38:46;2.63;;;1.15;;
13421;SDS011;6782;55.904;13.396;2023-06-10T06:41:35;2.28;;;1.10;;
13421;SDS011;6782;55.904;13.396;2023-06-10T06:44:22;1.55;;;1.20;;
13421;SDS011;6782;55.904;13.396;2023-06-10T06:47:10;1.88;;;0.95;;
13421;SDS011;6782;55.904;13.396;2023-06-10T06:49:57;1.20;;;1.10;;
13421;SDS011;6782;55.904;13.396;2023-06-10T06:52:44;1.35;;;1.08;;
13421;SDS011;6782;55.904;13.396;2023-06-10T06:55:32;2.40;;;1.13;;
13421;SDS011;6782;55.904;13.396;2023-06-10T06:58:20;1.45;;;1.10;;
13421;SDS011;6782;55.904;13.396;2023-06-10T07:01:07;2.08;;;1.00;;
13421;SDS011;6782;55.904;13.396;2023-06-10T07:03:55;2.47;;;1.30;;
13421;SDS011;6782;55.904;13.396;2023-06-10T07:06:42;2.55;;;1.42;;
13421;SDS011;6782;55.904;13.396;2023-06-10T07:09:30;2.15;;;1.10;;
13421;SDS011;6782;55.904;13.396;2023-06-10T07:12:17;3.30;;;1.20;;
13421;SDS011;6782;55.904;13.396;2023-06-10T07:15:09;3.38;;;1.25;;
13421;SDS011;6782;55.904;13.396;2023-06-10T07:17:57;1.40;;;0.98;;
13421;SDS011;6782;55.904;13.396;2023-06-10T07:20:44;0.95;;;0.90;;
13421;SDS011;6782;55.904;13.396;2023-06-10T07:23:31;2.08;;;1.30;;
13421;SDS011;6782;55.904;13.396;2023-06-10T07:26:18;4.68;;;1.75;;
13421;SDS011;6782;55.904;13.396;2023-06-10T07:29:06;2.35;;;1.23;;
13421;SDS011;6782;55.904;13.396;2023-06-10T07:31:55;3.33;;;1.20;;
13421;SDS011;6782;55.904;13.396;2023-06-10T07:34:42;1.95;;;1.25;;
13421;SDS011;6782;55.904;13.396;2023-06-10T07:37:30;1.10;;;1.00;;
13421;SDS011;6782;55.904;13.396;2023-06-10T07:40:17;1.88;;;1.08;;
13421;SDS011;6782;55.904;13.396;2023-06-10T07:43:05;1.33;;;1.00;;
13421;SDS011;6782;55.904;13.396;2023-06-10T07:45:52;1.58;;;1.02;;
13421;SDS011;6782;55.904;13.396;2023-06-10T07:48:41;1.02;;;0.95;;
13421;SDS011;6782;55.904;13.396;2023-06-10T07:51:28;2.40;;;1.10;;
13421;SDS011;6782;55.904;13.396;2023-06-10T07:54:15;2.15;;;0.93;;
13421;SDS011;6782;55.904;13.396;2023-06-10T07:57:02;2.35;;;1.10;;
13421;SDS011;6782;55.904;13.396;2023-06-10T07:59:50;2.40;;;1.20;;
13421;SDS011;6782;55.904;13.396;2023-06-10T08:02:37;2.15;;;1.02;;
13421;SDS011;6782;55.904;13.396;2023-06-10T08:05:26;1.70;;;0.95;;
13421;SDS011;6782;55.904;13.396;2023-06-10T08:08:14;2.17;;;1.13;;
13421;SDS011;6782;55.904;13.396;2023-06-10T08:11:01;3.03;;;1.10;;
13421;SDS011;6782;55.904;13.396;2023-06-10T08:13:48;1.70;;;1.20;;
13421;SDS011;6782;55.904;13.396;2023-06-10T08:16:36;1.92;;;1.13;;
13421;SDS011;6782;55.904;13.396;2023-06-10T08:19:23;3.97;;;1.30;;
13421;SDS011;6782;55.904;13.396;2023-06-10T08:22:12;2.15;;;1.20;;
13421;SDS011;6782;55.904;13.396;2023-06-10T08:25:00;2.25;;;1.50;;
13421;SDS011;6782;55.904;13.396;2023-06-10T08:27:47;1.83;;;1.27;;
13421;SDS011;6782;55.904;13.396;2023-06-10T08:30:36;2.72;;;1.15;;
13421;SDS011;6782;55.904;13.396;2023-06-10T08:33:23;1.60;;;1.40;;
13421;SDS011;6782;55.904;13.396;2023-06-10T08:36:10;2.85;;;1.25;;
13421;SDS011;6782;55.904;13.396;2023-06-10T08:38:59;2.80;;;1.50;;
13421;SDS011;6782;55.904;13.396;2023-06-10T08:41:48;4.07;;;1.38;;
13421;SDS011;6782;55.904;13.396;2023-06-10T08:44:45;4.68;;;1.42;;
13421;SDS011;6782;55.904;13.396;2023-06-10T08:47:33;1.15;;;0.98;;
13421;SDS011;6782;55.904;13.396;2023-06-10T08:50:24;2.60;;;1.35;;
13421;SDS011;6782;55.904;13.396;2023-06-10T08:53:13;3.63;;;1.33;;
13421;SDS011;6782;55.904;13.396;2023-06-10T08:56:06;2.58;;;1.63;;
13421;SDS011;6782;55.904;13.396;2023-06-10T08:58:54;3.30;;;1.60;;
13421;SDS011;6782;55.904;13.396;2023-06-10T09:01:42;2.53;;;1.30;;
13421;SDS011;6782;55.904;13.396;2023-06-10T09:04:30;5.22;;;1.40;;
13421;SDS011;6782;55.904;13.396;2023-06-10T09:07:19;2.42;;;1.45;;
13421;SDS011;6782;55.904;13.396;2023-06-10T09:10:07;3.05;;;1.23;;
13421;SDS011;6782;55.904;13.396;2023-06-10T09:12:56;4.60;;;1.67;;
13421;SDS011;6782;55.904;13.396;2023-06-10T09:15:43;3.25;;;1.48;;
13421;SDS011;6782;55.904;13.396;2023-06-10T09:18:31;2.85;;;1.40;;
13421;SDS011;6782;55.904;13.396;2023-06-10T09:21:20;3.65;;;1.77;;
13421;SDS011;6782;55.904;13.396;2023-06-10T09:24:08;2.42;;;1.30;;
13421;SDS011;6782;55.904;13.396;2023-06-10T09:27:01;3.00;;;1.60;;
13421;SDS011;6782;55.904;13.396;2023-06-10T09:29:53;4.05;;;1.50;;
13421;SDS011;6782;55.904;13.396;2023-06-10T09:32:43;3.05;;;1.52;;
13421;SDS011;6782;55.904;13.396;2023-06-10T09:35:30;2.90;;;1.10;;
13421;SDS011;6782;55.904;13.396;2023-06-10T09:38:19;2.75;;;1.50;;
13421;SDS011;6782;55.904;13.396;2023-06-10T09:41:07;3.17;;;1.40;;
13421;SDS011;6782;55.904;13.396;2023-06-10T09:43:55;4.13;;;1.70;;
13421;SDS011;6782;55.904;13.396;2023-06-10T09:46:44;3.40;;;1.70;;
13421;SDS011;6782;55.904;13.396;2023-06-10T09:49:33;2.22;;;1.52;;
13421;SDS011;6782;55.904;13.396;2023-06-10T09:52:24;4.93;;;1.98;;
13421;SDS011;6782;55.904;13.396;2023-06-10T09:55:13;3.63;;;1.42;;
13421;SDS011;6782;55.904;13.396;2023-06-10T09:58:00;4.85;;;1.75;;
13421;SDS011;6782;55.904;13.396;2023-06-10T10:00:49;3.65;;;1.40;;
13421;SDS011;6782;55.904;13.396;2023-06-10T10:03:45;3.35;;;1.52;;
13421;SDS011;6782;55.904;13.396;2023-06-10T10:06:33;4.75;;;1.65;;
13421;SDS011;6782;55.904;13.396;2023-06-10T10:09:22;2.88;;;1.60;;
13421;SDS011;6782;55.904;13.396;2023-06-10T10:12:09;3.20;;;1.60;;
13421;SDS011;6782;55.904;13.396;2023-06-10T10:14:57;2.20;;;1.40;;
13421;SDS011;6782;55.904;13.396;2023-06-10T10:17:46;2.08;;;1.38;;
13421;SDS011;6782;55.904;13.396;2023-06-10T10:20:43;2.80;;;1.40;;
13421;SDS011;6782;55.904;13.396;2023-06-10T10:23:34;2.47;;;1.42;;
13421;SDS011;6782;55.904;13.396;2023-06-10T10:26:27;3.35;;;1.67;;
13421;SDS011;6782;55.904;13.396;2023-06-10T10:29:16;5.38;;;1.70;;
13421;SDS011;6782;55.904;13.396;2023-06-10T10:32:10;2.63;;;1.50;;
13421;SDS011;6782;55.904;13.396;2023-06-10T10:35:02;3.67;;;1.42;;
13421;SDS011;6782;55.904;13.396;2023-06-10T10:37:56;6.53;;;1.65;;
13421;SDS011;6782;55.904;13.396;2023-06-10T10:40:43;5.82;;;1.98;;
13421;SDS011;6782;55.904;13.396;2023-06-10T10:43:33;3.38;;;1.40;;
13421;SDS011;6782;55.904;13.396;2023-06-10T10:46:20;3.55;;;1.88;;
13421;SDS011;6782;55.904;13.396;2023-06-10T10:49:08;2.55;;;1.65;;
13421;SDS011;6782;55.904;13.396;2023-06-10T10:51:57;6.03;;;1.83;;
13421;SDS011;6782;55.904;13.396;2023-06-10T10:54:47;5.18;;;1.92;;
13421;SDS011;6782;55.904;13.396;2023-06-10T10:57:34;2.97;;;1.90;;
13421;SDS011;6782;55.904;13.396;2023-06-10T11:00:29;5.45;;;2.10;;
13421;SDS011;6782;55.904;13.396;2023-06-10T11:03:17;5.68;;;2.05;;
13421;SDS011;6782;55.904;13.396;2023-06-10T11:06:04;3.95;;;1.90;;
13421;SDS011;6782;55.904;13.396;2023-06-10T11:08:59;3.38;;;1.70;;
13421;SDS011;6782;55.904;13.396;2023-06-10T11:11:50;4.50;;;2.10;;
13421;SDS011;6782;55.904;13.396;2023-06-10T11:14:37;4.13;;;1.80;;
13421;SDS011;6782;55.904;13.396;2023-06-10T11:21:00;3.05;;;2.00;;
13421;SDS011;6782;55.904;13.396;2023-06-10T11:23:50;4.07;;;1.80;;
13421;SDS011;6782;55.904;13.396;2023-06-10T11:26:43;5.85;;;2.10;;
13421;SDS011;6782;55.904;13.396;2023-06-10T11:29:32;4.13;;;1.85;;
13421;SDS011;6782;55.904;13.396;2023-06-10T11:32:20;6.88;;;2.10;;
13421;SDS011;6782;55.904;13.396;2023-06-10T11:35:07;3.55;;;2.10;;
13421;SDS011;6782;55.904;13.396;2023-06-10T11:37:55;4.57;;;1.80;;
13421;SDS011;6782;55.904;13.396;2023-06-10T11:40:46;4.28;;;1.88;;
13421;SDS011;6782;55.904;13.396;2023-06-10T11:43:34;4.22;;;1.70;;
13421;SDS011;6782;55.904;13.396;2023-06-10T11:46:24;2.88;;;1.70;;
13421;SDS011;6782;55.904;13.396;2023-06-10T11:49:14;6.60;;;2.00;;
13421;SDS011;6782;55.904;13.396;2023-06-10T11:52:04;2.85;;;1.70;;
13421;SDS011;6782;55.904;13.396;2023-06-10T11:54:53;3.50;;;1.52;;
13421;SDS011;6782;55.904;13.396;2023-06-10T11:57:40;4.03;;;1.92;;
13421;SDS011;6782;55.904;13.396;2023-06-10T12:00:28;2.40;;;1.90;;
13421;SDS011;6782;55.904;13.396;2023-06-10T12:03:17;2.17;;;1.90;;
13421;SDS011;6782;55.904;13.396;2023-06-10T12:06:05;3.08;;;1.73;;
13421;SDS011;6782;55.904;13.396;2023-06-10T12:08:53;3.95;;;1.85;;
13421;SDS011;6782;55.904;13.396;2023-06-10T12:11:42;4.85;;;1.80;;
13421;SDS011;6782;55.904;13.396;2023-06-10T12:17:43;3.58;;;1.90;;
13421;SDS011;6782;55.904;13.396;2023-06-10T12:20:33;3.50;;;1.77;;
13421;SDS011;6782;55.904;13.396;2023-06-10T12:23:23;3.88;;;1.80;;
13421;SDS011;6782;55.904;13.396;2023-06-10T12:26:10;3.42;;;1.90;;
13421;SDS011;6782;55.904;13.396;2023-06-10T12:28:58;3.03;;;1.70;;
13421;SDS011;6782;55.904;13.396;2023-06-10T12:31:52;2.72;;;1.70;;
13421;SDS011;6782;55.904;13.396;2023-06-10T12:34:40;1.92;;;1.50;;
13421;SDS011;6782;55.904;13.396;2023-06-10T12:37:28;3.75;;;1.90;;
13421;SDS011;6782;55.904;13.396;2023-06-10T12:40:18;5.72;;;1.80;;
13421;SDS011;6782;55.904;13.396;2023-06-10T12:43:13;3.53;;;1.75;;
13421;SDS011;6782;55.904;13.396;2023-06-10T12:46:08;3.08;;;1.42;;
13421;SDS011;6782;55.904;13.396;2023-06-10T12:48:58;3.28;;;1.83;;
13421;SDS011;6782;55.904;13.396;2023-06-10T12:51:45;3.45;;;1.65;;
13421;SDS011;6782;55.904;13.396;2023-06-10T12:54:33;2.85;;;1.60;;
13421;SDS011;6782;55.904;13.396;2023-06-10T12:57:21;2.03;;;1.50;;
13421;SDS011;6782;55.904;13.396;2023-06-10T13:00:08;3.55;;;1.83;;
13421;SDS011;6782;55.904;13.396;2023-06-10T13:02:59;4.25;;;1.35;;
13421;SDS011;6782;55.904;13.396;2023-06-10T13:05:48;3.08;;;1.58;;
13421;SDS011;6782;55.904;13.396;2023-06-10T13:08:35;2.85;;;1.60;;
13421;SDS011;6782;55.904;13.396;2023-06-10T13:11:23;3.33;;;1.52;;
13421;SDS011;6782;55.904;13.396;2023-06-10T13:14:11;5.30;;;1.80;;
13421;SDS011;6782;55.904;13.396;2023-06-10T13:16:58;13.10;;;2.08;;
13421;SDS011;6782;55.904;13.396;2023-06-10T13:19:46;2.30;;;1.50;;
13421;SDS011;6782;55.904;13.396;2023-06-10T13:22:34;2.67;;;1.65;;
13421;SDS011;6782;55.904;13.396;2023-06-10T13:25:22;4.10;;;1.50;;
13421;SDS011;6782;55.904;13.396;2023-06-10T13:28:11;2.05;;;1.50;;
13421;SDS011;6782;55.904;13.396;2023-06-10T13:30:58;2.58;;;1.60;;
13421;SDS011;6782;55.904;13.396;2023-06-10T13:33:45;4.15;;;1.20;;
13421;SDS011;6782;55.904;13.396;2023-06-10T13:36:32;1.77;;;1.40;;
13421;SDS011;6782;55.904;13.396;2023-06-10T13:39:20;2.10;;;1.25;;
13421;SDS011;6782;55.904;13.396;2023-06-10T13:42:07;2.35;;;1.48;;
13421;SDS011;6782;55.904;13.396;2023-06-10T13:44:56;3.00;;;1.70;;
13421;SDS011;6782;55.904;13.396;2023-06-10T13:47:43;3.15;;;1.60;;
13421;SDS011;6782;55.904;13.396;2023-06-10T13:50:30;3.05;;;1.40;;
13421;SDS011;6782;55.904;13.396;2023-06-10T13:53:17;2.28;;;1.30;;
13421;SDS011;6782;55.904;13.396;2023-06-10T13:56:04;3.30;;;1.40;;
13421;SDS011;6782;55.904;13.396;2023-06-10T13:58:52;3.65;;;1.33;;
13421;SDS011;6782;55.904;13.396;2023-06-10T14:01:41;2.33;;;1.20;;
13421;SDS011;6782;55.904;13.396;2023-06-10T14:04:28;3.22;;;1.40;;
13421;SDS011;6782;55.904;13.396;2023-06-10T14:07:16;4.97;;;1.45;;
13421;SDS011;6782;55.904;13.396;2023-06-10T14:10:03;2.80;;;1.23;;
13421;SDS011;6782;55.904;13.396;2023-06-10T14:12:51;1.63;;;1.30;;
13421;SDS011;6782;55.904;13.396;2023-06-10T14:15:39;3.60;;;1.50;;
13421;SDS011;6782;55.904;13.396;2023-06-10T14:18:28;3.42;;;1.40;;
13421;SDS011;6782;55.904;13.396;2023-06-10T14:21:15;2.85;;;1.40;;
13421;SDS011;6782;55.904;13.396;2023-06-10T14:24:02;2.10;;;1.33;;
13421;SDS011;6782;55.904;13.396;2023-06-10T14:26:50;2.08;;;1.40;;
13421;SDS011;6782;55.904;13.396;2023-06-10T14:29:37;1.63;;;1.17;;
13421;SDS011;6782;55.904;13.396;2023-06-10T14:32:24;3.75;;;1.25;;
13421;SDS011;6782;55.904;13.396;2023-06-10T14:35:13;1.38;;;1.10;;
13421;SDS011;6782;55.904;13.396;2023-06-10T14:38:00;2.50;;;1.00;;
13421;SDS011;6782;55.904;13.396;2023-06-10T14:40:47;3.50;;;1.30;;
13421;SDS011;6782;55.904;13.396;2023-06-10T14:43:34;4.47;;;1.40;;
13421;SDS011;6782;55.904;13.396;2023-06-10T14:46:21;3.72;;;1.35;;
13421;SDS011;6782;55.904;13.396;2023-06-10T14:49:09;1.77;;;0.90;;
13421;SDS011;6782;55.904;13.396;2023-06-10T14:51:57;2.17;;;1.30;;
13421;SDS011;6782;55.904;13.396;2023-06-10T14:54:45;1.40;;;1.00;;
13421;SDS011;6782;55.904;13.396;2023-06-10T14:57:32;2.60;;;1.02;;
13421;SDS011;6782;55.904;13.396;2023-06-10T15:00:19;1.40;;;1.10;;
13421;SDS011;6782;55.904;13.396;2023-06-10T15:03:08;3.30;;;1.25;;
13421;SDS011;6782;55.904;13.396;2023-06-10T15:05:56;2.30;;;1.00;;
13421;SDS011;6782;55.904;13.396;2023-06-10T15:08:45;4.57;;;1.38;;
13421;SDS011;6782;55.904;13.396;2023-06-10T15:11:33;4.40;;;1.02;;
13421;SDS011;6782;55.904;13.396;2023-06-10T15:14:21;2.45;;;1.20;;
13421;SDS011;6782;55.904;13.396;2023-06-10T15:17:08;2.75;;;1.10;;
13421;SDS011;6782;55.904;13.396;2023-06-10T15:19:56;1.67;;;0.98;;
13421;SDS011;6782;55.904;13.396;2023-06-10T15:22:43;1.33;;;0.80;;
13421;SDS011;6782;55.904;13.396;2023-06-10T15:25:32;0.80;;;0.80;;
13421;SDS011;6782;55.904;13.396;2023-06-10T15:28:19;1.40;;;0.90;;
13421;SDS011;6782;55.904;13.396;2023-06-10T15:31:06;1.85;;;1.10;;
13421;SDS011;6782;55.904;13.396;2023-06-10T15:33:54;1.63;;;1.17;;
13421;SDS011;6782;55.904;13.396;2023-06-10T15:36:41;4.10;;;1.20;;
13421;SDS011;6782;55.904;13.396;2023-06-10T15:39:28;2.25;;;0.90;;
13421;SDS011;6782;55.904;13.396;2023-06-10T15:42:18;0.95;;;0.80;;
13421;SDS011;6782;55.904;13.396;2023-06-10T15:45:05;1.48;;;1.13;;
13421;SDS011;6782;55.904;13.396;2023-06-10T15:47:53;2.70;;;1.10;;
13421;SDS011;6782;55.904;13.396;2023-06-10T15:50:40;1.67;;;0.95;;
13421;SDS011;6782;55.904;13.396;2023-06-10T15:53:28;2.85;;;1.00;;
13421;SDS011;6782;55.904;13.396;2023-06-10T15:56:15;2.95;;;0.98;;
13421;SDS011;6782;55.904;13.396;2023-06-10T15:59:04;2.42;;;1.00;;
13421;SDS011;6782;55.904;13.396;2023-06-10T16:01:51;2.15;;;0.90;;
13421;SDS011;6782;55.904;13.396;2023-06-10T16:04:39;2.00;;;0.73;;
13421;SDS011;6782;55.904;13.396;2023-06-10T16:07:26;3.50;;;1.00;;
13421;SDS011;6782;55.904;13.396;2023-06-10T16:10:13;2.17;;;0.93;;
13421;SDS011;6782;55.904;13.396;2023-06-10T16:13:00;1.02;;;0.80;;
13421;SDS011;6782;55.904;13.396;2023-06-10T16:15:49;1.17;;;1.05;;
13421;SDS011;6782;55.904;13.396;2023-06-10T16:18:36;3.95;;;1.08;;
13421;SDS011;6782;55.904;13.396;2023-06-10T16:21:23;1.67;;;0.95;;
13421;SDS011;6782;55.904;13.396;2023-06-10T16:24:11;1.10;;;0.90;;
13421;SDS011;6782;55.904;13.396;2023-06-10T16:26:58;1.10;;;1.00;;
13421;SDS011;6782;55.904;13.396;2023-06-10T16:29:45;2.13;;;1.00;;
13421;SDS011;6782;55.904;13.396;2023-06-10T16:32:34;1.60;;;1.00;;
13421;SDS011;6782;55.904;13.396;2023-06-10T16:35:21;1.30;;;1.00;;
13421;SDS011;6782;55.904;13.396;2023-06-10T16:38:08;2.33;;;1.00;;
13421;SDS011;6782;55.904;13.396;2023-06-10T16:40:55;1.30;;;1.17;;
13421;SDS011;6782;55.904;13.396;2023-06-10T16:43:43;1.52;;;1.30;;
13421;SDS011;6782;55.904;13.396;2023-06-10T16:46:30;2.92;;;1.42;;
13421;SDS011;6782;55.904;13.396;2023-06-10T16:49:18;1.15;;;0.90;;
13421;SDS011;6782;55.904;13.396;2023-06-10T16:52:06;3.65;;;1.20;;
13421;SDS011;6782;55.904;13.396;2023-06-10T16:54:53;1.77;;;1.25;;
13421;SDS011;6782;55.904;13.396;2023-06-10T16:57:41;2.67;;;1.00;;
13421;SDS011;6782;55.904;13.396;2023-06-10T17:00:28;0.90;;;0.90;;